sensor_id;sensor_type;location;lat;lon;timestamp;temperature;humidity
12769;DHT22;6448;48.916;8.990;2023-08-08T00:00:07;20.70;48.40
12769;DHT22;6448;48.916;8.990;2023-08-08T00:01:09;20.70;48.50
12769;DHT22;6448;48.916;8.990;2023-08-08T00:02:12;20.70;48.60
12769;DHT22;6448;48.916;8.990;2023-08-08T00:03:13;20.70;48.60
12769;DHT22;6448;48.916;8.990;2023-08-08T00:04:14;20.70;48.70
12769;DHT22;6448;48.916;8.990;2023-08-08T00:05:15;20.70;48.70
12769;DHT22;6448;48.916;8.990;2023-08-08T00:06:17;20.70;48.80
12769;DHT22;6448;48.916;8.990;2023-08-08T00:07:18;20.70;48.70
12769;DHT22;6448;48.916;8.990;2023-08-08T00:08:19;20.60;48.70
12769;DHT22;6448;48.916;8.990;2023-08-08T00:09:20;20.60;48.70
12769;DHT22;6448;48.916;8.990;2023-08-08T00:10:22;20.60;48.70
12769;DHT22;6448;48.916;8.990;2023-08-08T00:11:23;20.60;48.80
12769;DHT22;6448;48.916;8.990;2023-08-08T00:12:24;20.60;48.80
12769;DHT22;6448;48.916;8.990;2023-08-08T00:13:25;20.60;48.80
12769;DHT22;6448;48.916;8.990;2023-08-08T00:14:26;20.80;48.80
12769;DHT22;6448;48.916;8.990;2023-08-08T00:15:28;20.60;48.70
12769;DHT22;6448;48.916;8.990;2023-08-08T00:16:28;20.60;48.70
12769;DHT22;6448;48.916;8.990;2023-08-08T00:17:32;20.70;48.70
12769;DHT22;6448;48.916;8.990;2023-08-08T00:18:32;20.60;48.70
12769;DHT22;6448;48.916;8.990;2023-08-08T00:19:34;20.60;48.70
12769;DHT22;6448;48.916;8.990;2023-08-08T00:20:35;20.60;48.70
12769;DHT22;6448;48.916;8.990;2023-08-08T00:21:37;20.60;48.70
12769;DHT22;6448;48.916;8.990;2023-08-08T00:22:37;20.60;48.70
12769;DHT22;6448;48.916;8.990;2023-08-08T00:23:39;20.60;48.80
12769;DHT22;6448;48.916;8.990;2023-08-08T00:24:40;20.60;48.90
12769;DHT22;6448;48.916;8.990;2023-08-08T00:25:42;20.60;48.90
12769;DHT22;6448;48.916;8.990;2023-08-08T00:26:42;20.60;49.00
12769;DHT22;6448;48.916;8.990;2023-08-08T00:27:44;20.60;49.00
12769;DHT22;6448;48.916;8.990;2023-08-08T00:28:45;20.60;49.00
12769;DHT22;6448;48.916;8.990;2023-08-08T00:29:47;20.60;49.00
12769;DHT22;6448;48.916;8.990;2023-08-08T00:30:48;20.60;48.90
12769;DHT22;6448;48.916;8.990;2023-08-08T00:31:49;20.60;49.00
12769;DHT22;6448;48.916;8.990;2023-08-08T00:32:51;20.60;49.00
12769;DHT22;6448;48.916;8.990;2023-08-08T00:33:53;20.60;48.90
12769;DHT22;6448;48.916;8.990;2023-08-08T00:34:54;20.50;48.90
12769;DHT22;6448;48.916;8.990;2023-08-08T00:35:56;20.50;48.90
12769;DHT22;6448;48.916;8.990;2023-08-08T00:36:56;20.60;49.00
12769;DHT22;6448;48.916;8.990;2023-08-08T00:37:58;20.50;49.00
12769;DHT22;6448;48.916;8.990;2023-08-08T00:38:59;20.50;49.10
12769;DHT22;6448;48.916;8.990;2023-08-08T00:40:00;20.50;49.10
12769;DHT22;6448;48.916;8.990;2023-08-08T00:41:02;20.60;49.10
12769;DHT22;6448;48.916;8.990;2023-08-08T00:42:03;20.50;49.10
12769;DHT22;6448;48.916;8.990;2023-08-08T00:43:05;20.50;49.20
12769;DHT22;6448;48.916;8.990;2023-08-08T00:44:06;20.50;49.20
12769;DHT22;6448;48.916;8.990;2023-08-08T00:45:08;20.50;49.20
12769;DHT22;6448;48.916;8.990;2023-08-08T00:46:09;20.50;49.30
12769;DHT22;6448;48.916;8.990;2023-08-08T00:47:11;20.50;49.30
12769;DHT22;6448;48.916;8.990;2023-08-08T00:48:13;20.50;49.30
12769;DHT22;6448;48.916;8.990;2023-08-08T00:49:15;20.50;49.40
12769;DHT22;6448;48.916;8.990;2023-08-08T00:50:16;20.50;49.30
12769;DHT22;6448;48.916;8.990;2023-08-08T00:51:18;20.50;49.40
12769;DHT22;6448;48.916;8.990;2023-08-08T00:52:20;20.50;49.40
12769;DHT22;6448;48.916;8.990;2023-08-08T00:53:22;20.50;49.40
12769;DHT22;6448;48.916;8.990;2023-08-08T00:54:26;20.50;49.40
12769;DHT22;6448;48.916;8.990;2023-08-08T00:55:28;20.50;49.50
12769;DHT22;6448;48.916;8.990;2023-08-08T00:56:29;20.50;49.50
12769;DHT22;6448;48.916;8.990;2023-08-08T00:57:32;20.50;49.50
12769;DHT22;6448;48.916;8.990;2023-08-08T00:58:33;20.50;49.60
12769;DHT22;6448;48.916;8.990;2023-08-08T00:59:33;20.50;49.60
12769;DHT22;6448;48.916;8.990;2023-08-08T01:00:35;20.50;49.60
12769;DHT22;6448;48.916;8.990;2023-08-08T01:01:36;20.50;49.60
12769;DHT22;6448;48.916;8.990;2023-08-08T01:02:38;20.50;49.60
12769;DHT22;6448;48.916;8.990;2023-08-08T01:03:40;20.50;49.70
12769;DHT22;6448;48.916;8.990;2023-08-08T01:04:42;20.50;49.70
12769;DHT22;6448;48.916;8.990;2023-08-08T01:05:47;20.50;49.70
12769;DHT22;6448;48.916;8.990;2023-08-08T01:06:55;20.50;49.70
12769;DHT22;6448;48.916;8.990;2023-08-08T01:08:04;20.50;49.70
12769;DHT22;6448;48.916;8.990;2023-08-08T01:09:12;20.50;49.70
12769;DHT22;6448;48.916;8.990;2023-08-08T01:10:16;20.50;49.70
12769;DHT22;6448;48.916;8.990;2023-08-08T01:11:18;20.50;49.80
12769;DHT22;6448;48.916;8.990;2023-08-08T01:12:19;20.50;49.80
12769;DHT22;6448;48.916;8.990;2023-08-08T01:13:22;20.50;49.80
12769;DHT22;6448;48.916;8.990;2023-08-08T01:14:26;20.50;49.80
12769;DHT22;6448;48.916;8.990;2023-08-08T01:15:30;20.50;49.80
12769;DHT22;6448;48.916;8.990;2023-08-08T01:16:36;20.50;49.80
12769;DHT22;6448;48.916;8.990;2023-08-08T01:17:39;20.50;49.90
12769;DHT22;6448;48.916;8.990;2023-08-08T01:18:43;20.50;49.90
12769;DHT22;6448;48.916;8.990;2023-08-08T01:19:46;20.50;49.90
12769;DHT22;6448;48.916;8.990;2023-08-08T01:20:47;20.50;49.90
12769;DHT22;6448;48.916;8.990;2023-08-08T01:21:52;20.50;50.00
12769;DHT22;6448;48.916;8.990;2023-08-08T01:22:58;20.50;50.00
12769;DHT22;6448;48.916;8.990;2023-08-08T01:24:15;20.50;50.10
12769;DHT22;6448;48.916;8.990;2023-08-08T01:25:17;20.50;50.10
12769;DHT22;6448;48.916;8.990;2023-08-08T01:26:19;20.50;50.10
12769;DHT22;6448;48.916;8.990;2023-08-08T01:27:21;20.50;50.10
12769;DHT22;6448;48.916;8.990;2023-08-08T01:28:24;20.50;50.10
12769;DHT22;6448;48.916;8.990;2023-08-08T01:29:25;20.50;50.10
12769;DHT22;6448;48.916;8.990;2023-08-08T01:30:27;20.50;50.10
12769;DHT22;6448;48.916;8.990;2023-08-08T01:31:28;20.50;50.20
12769;DHT22;6448;48.916;8.990;2023-08-08T01:32:30;20.50;50.20
12769;DHT22;6448;48.916;8.990;2023-08-08T01:33:31;20.50;50.20
12769;DHT22;6448;48.916;8.990;2023-08-08T01:34:32;20.50;50.20
12769;DHT22;6448;48.916;8.990;2023-08-08T01:35:37;20.50;50.20
12769;DHT22;6448;48.916;8.990;2023-08-08T01:36:45;20.50;50.10
12769;DHT22;6448;48.916;8.990;2023-08-08T01:37:50;20.50;50.20
12769;DHT22;6448;48.916;8.990;2023-08-08T01:38:55;20.50;50.20
12769;DHT22;6448;48.916;8.990;2023-08-08T01:40:00;20.50;50.30
12769;DHT22;6448;48.916;8.990;2023-08-08T01:41:05;20.50;50.10
12769;DHT22;6448;48.916;8.990;2023-08-08T01:42:07;20.50;50.10
12769;DHT22;6448;48.916;8.990;2023-08-08T01:43:09;20.50;50.20
12769;DHT22;6448;48.916;8.990;2023-08-08T01:44:10;20.50;50.20
12769;DHT22;6448;48.916;8.990;2023-08-08T01:45:13;20.50;50.20
12769;DHT22;6448;48.916;8.990;2023-08-08T01:46:15;20.50;50.20
12769;DHT22;6448;48.916;8.990;2023-08-08T01:47:17;20.50;50.30
12769;DHT22;6448;48.916;8.990;2023-08-08T01:48:18;20.50;50.30
12769;DHT22;6448;48.916;8.990;2023-08-08T01:49:20;20.50;50.40
12769;DHT22;6448;48.916;8.990;2023-08-08T01:50:21;20.50;50.30
12769;DHT22;6448;48.916;8.990;2023-08-08T01:51:23;20.50;50.30
12769;DHT22;6448;48.916;8.990;2023-08-08T01:52:25;20.50;50.20
12769;DHT22;6448;48.916;8.990;2023-08-08T01:53:27;20.50;50.10
12769;DHT22;6448;48.916;8.990;2023-08-08T01:54:28;20.50;50.20
12769;DHT22;6448;48.916;8.990;2023-08-08T01:55:31;20.50;50.20
12769;DHT22;6448;48.916;8.990;2023-08-08T01:56:32;20.50;50.20
12769;DHT22;6448;48.916;8.990;2023-08-08T01:57:35;20.50;50.20
12769;DHT22;6448;48.916;8.990;2023-08-08T01:58:36;20.50;50.20
12769;DHT22;6448;48.916;8.990;2023-08-08T01:59:37;20.50;50.30
12769;DHT22;6448;48.916;8.990;2023-08-08T02:00:38;20.50;50.30
12769;DHT22;6448;48.916;8.990;2023-08-08T02:01:41;20.50;50.30
12769;DHT22;6448;48.916;8.990;2023-08-08T02:02:42;20.50;50.30
12769;DHT22;6448;48.916;8.990;2023-08-08T02:03:44;20.50;50.40
12769;DHT22;6448;48.916;8.990;2023-08-08T02:04:45;20.50;50.50
12769;DHT22;6448;48.916;8.990;2023-08-08T02:05:47;20.50;50.40
12769;DHT22;6448;48.916;8.990;2023-08-08T02:06:47;20.50;50.50
12769;DHT22;6448;48.916;8.990;2023-08-08T02:07:49;20.50;50.50
12769;DHT22;6448;48.916;8.990;2023-08-08T02:08:50;20.50;50.50
12769;DHT22;6448;48.916;8.990;2023-08-08T02:09:52;20.40;50.40
12769;DHT22;6448;48.916;8.990;2023-08-08T02:10:54;20.50;50.50
12769;DHT22;6448;48.916;8.990;2023-08-08T02:11:56;20.40;50.40
12769;DHT22;6448;48.916;8.990;2023-08-08T02:12:56;20.40;50.40
12769;DHT22;6448;48.916;8.990;2023-08-08T02:13:58;20.40;50.40
12769;DHT22;6448;48.916;8.990;2023-08-08T02:14:59;20.40;50.30
12769;DHT22;6448;48.916;8.990;2023-08-08T02:16:01;20.40;50.30
12769;DHT22;6448;48.916;8.990;2023-08-08T02:17:02;20.40;50.30
12769;DHT22;6448;48.916;8.990;2023-08-08T02:18:05;20.40;50.30
12769;DHT22;6448;48.916;8.990;2023-08-08T02:19:08;20.40;50.30
12769;DHT22;6448;48.916;8.990;2023-08-08T02:20:10;20.40;50.30
12769;DHT22;6448;48.916;8.990;2023-08-08T02:21:12;20.40;50.30
12769;DHT22;6448;48.916;8.990;2023-08-08T02:22:14;20.40;50.30
12769;DHT22;6448;48.916;8.990;2023-08-08T02:23:15;20.40;50.90
12769;DHT22;6448;48.916;8.990;2023-08-08T02:24:15;20.40;50.30
12769;DHT22;6448;48.916;8.990;2023-08-08T02:25:17;20.40;50.30
12769;DHT22;6448;48.916;8.990;2023-08-08T02:26:20;20.30;50.30
12769;DHT22;6448;48.916;8.990;2023-08-08T02:27:22;20.30;50.30
12769;DHT22;6448;48.916;8.990;2023-08-08T02:28:23;20.30;50.30
12769;DHT22;6448;48.916;8.990;2023-08-08T02:29:25;20.30;50.40
12769;DHT22;6448;48.916;8.990;2023-08-08T02:30:26;20.30;50.40
12769;DHT22;6448;48.916;8.990;2023-08-08T02:31:27;20.30;50.40
12769;DHT22;6448;48.916;8.990;2023-08-08T02:32:28;20.30;50.40
12769;DHT22;6448;48.916;8.990;2023-08-08T02:33:30;20.30;50.40
12769;DHT22;6448;48.916;8.990;2023-08-08T02:34:31;20.30;50.50
12769;DHT22;6448;48.916;8.990;2023-08-08T02:35:32;20.30;50.50
12769;DHT22;6448;48.916;8.990;2023-08-08T02:36:33;20.30;51.10
12769;DHT22;6448;48.916;8.990;2023-08-08T02:37:35;20.30;50.50
12769;DHT22;6448;48.916;8.990;2023-08-08T02:38:37;20.30;50.60
12769;DHT22;6448;48.916;8.990;2023-08-08T02:39:38;20.30;50.60
12769;DHT22;6448;48.916;8.990;2023-08-08T02:40:39;20.30;50.50
12769;DHT22;6448;48.916;8.990;2023-08-08T02:41:42;20.20;50.50
12769;DHT22;6448;48.916;8.990;2023-08-08T02:42:44;20.30;50.50
12769;DHT22;6448;48.916;8.990;2023-08-08T02:43:45;20.30;50.50
12769;DHT22;6448;48.916;8.990;2023-08-08T02:44:46;20.20;50.50
12769;DHT22;6448;48.916;8.990;2023-08-08T02:45:48;20.20;50.50
12769;DHT22;6448;48.916;8.990;2023-08-08T02:46:49;20.20;50.50
12769;DHT22;6448;48.916;8.990;2023-08-08T02:47:51;20.20;50.50
12769;DHT22;6448;48.916;8.990;2023-08-08T02:48:51;20.20;50.50
12769;DHT22;6448;48.916;8.990;2023-08-08T02:49:53;20.20;50.50
12769;DHT22;6448;48.916;8.990;2023-08-08T02:50:54;20.20;50.50
12769;DHT22;6448;48.916;8.990;2023-08-08T02:51:59;20.20;50.50
12769;DHT22;6448;48.916;8.990;2023-08-08T02:53:02;20.20;50.40
12769;DHT22;6448;48.916;8.990;2023-08-08T02:54:09;20.20;50.40
12769;DHT22;6448;48.916;8.990;2023-08-08T02:55:12;20.10;50.30
12769;DHT22;6448;48.916;8.990;2023-08-08T02:56:14;20.20;50.30
12769;DHT22;6448;48.916;8.990;2023-08-08T02:57:18;20.10;50.30
12769;DHT22;6448;48.916;8.990;2023-08-08T02:58:20;20.10;50.30
12769;DHT22;6448;48.916;8.990;2023-08-08T02:59:21;20.10;50.30
12769;DHT22;6448;48.916;8.990;2023-08-08T03:00:24;20.10;50.30
12769;DHT22;6448;48.916;8.990;2023-08-08T03:01:27;20.10;50.30
12769;DHT22;6448;48.916;8.990;2023-08-08T03:02:31;20.10;50.30
12769;DHT22;6448;48.916;8.990;2023-08-08T03:03:32;20.10;50.30
12769;DHT22;6448;48.916;8.990;2023-08-08T03:04:35;20.10;50.30
12769;DHT22;6448;48.916;8.990;2023-08-08T03:05:37;20.10;50.30
12769;DHT22;6448;48.916;8.990;2023-08-08T03:06:39;20.10;50.30
12769;DHT22;6448;48.916;8.990;2023-08-08T03:07:40;20.00;50.30
12769;DHT22;6448;48.916;8.990;2023-08-08T03:08:42;20.00;50.30
12769;DHT22;6448;48.916;8.990;2023-08-08T03:09:43;20.00;50.30
12769;DHT22;6448;48.916;8.990;2023-08-08T03:10:46;20.00;50.30
12769;DHT22;6448;48.916;8.990;2023-08-08T03:11:47;20.00;50.40
12769;DHT22;6448;48.916;8.990;2023-08-08T03:12:52;20.00;50.40
12769;DHT22;6448;48.916;8.990;2023-08-08T03:13:55;20.00;50.40
12769;DHT22;6448;48.916;8.990;2023-08-08T03:14:56;20.00;50.40
12769;DHT22;6448;48.916;8.990;2023-08-08T03:15:58;19.90;50.40
12769;DHT22;6448;48.916;8.990;2023-08-08T03:16:59;20.00;50.50
12769;DHT22;6448;48.916;8.990;2023-08-08T03:18:01;20.00;50.50
12769;DHT22;6448;48.916;8.990;2023-08-08T03:19:02;19.90;50.50
12769;DHT22;6448;48.916;8.990;2023-08-08T03:20:06;20.00;50.60
12769;DHT22;6448;48.916;8.990;2023-08-08T03:21:07;19.90;50.50
12769;DHT22;6448;48.916;8.990;2023-08-08T03:22:09;20.00;50.60
12769;DHT22;6448;48.916;8.990;2023-08-08T03:23:12;19.90;50.50
12769;DHT22;6448;48.916;8.990;2023-08-08T03:24:15;19.90;50.50
12769;DHT22;6448;48.916;8.990;2023-08-08T03:25:15;19.90;50.40
12769;DHT22;6448;48.916;8.990;2023-08-08T03:26:17;19.80;50.40
12769;DHT22;6448;48.916;8.990;2023-08-08T03:27:20;19.90;50.40
12769;DHT22;6448;48.916;8.990;2023-08-08T03:28:27;19.90;50.40
12769;DHT22;6448;48.916;8.990;2023-08-08T03:29:30;19.80;50.50
12769;DHT22;6448;48.916;8.990;2023-08-08T03:30:36;19.80;50.50
12769;DHT22;6448;48.916;8.990;2023-08-08T03:31:40;19.80;50.60
12769;DHT22;6448;48.916;8.990;2023-08-08T03:32:42;19.80;50.60
12769;DHT22;6448;48.916;8.990;2023-08-08T03:33:42;19.70;50.70
12769;DHT22;6448;48.916;8.990;2023-08-08T03:34:45;19.80;50.80
12769;DHT22;6448;48.916;8.990;2023-08-08T03:35:48;19.70;50.80
12769;DHT22;6448;48.916;8.990;2023-08-08T03:36:51;19.80;50.90
12769;DHT22;6448;48.916;8.990;2023-08-08T03:37:52;19.70;50.90
12769;DHT22;6448;48.916;8.990;2023-08-08T03:38:53;19.70;50.90
12769;DHT22;6448;48.916;8.990;2023-08-08T03:39:55;19.70;51.00
12769;DHT22;6448;48.916;8.990;2023-08-08T03:40:56;19.70;51.10
12769;DHT22;6448;48.916;8.990;2023-08-08T03:41:57;19.70;51.10
12769;DHT22;6448;48.916;8.990;2023-08-08T03:42:58;19.70;51.20
12769;DHT22;6448;48.916;8.990;2023-08-08T03:44:02;19.70;51.20
12769;DHT22;6448;48.916;8.990;2023-08-08T03:45:04;19.70;51.20
12769;DHT22;6448;48.916;8.990;2023-08-08T03:46:06;19.70;51.30
12769;DHT22;6448;48.916;8.990;2023-08-08T03:47:07;19.60;51.20
12769;DHT22;6448;48.916;8.990;2023-08-08T03:48:09;19.70;51.30
12769;DHT22;6448;48.916;8.990;2023-08-08T03:49:10;19.70;52.00
12769;DHT22;6448;48.916;8.990;2023-08-08T03:50:11;19.70;52.00
12769;DHT22;6448;48.916;8.990;2023-08-08T03:51:12;19.70;51.50
12769;DHT22;6448;48.916;8.990;2023-08-08T03:52:14;19.60;51.50
12769;DHT22;6448;48.916;8.990;2023-08-08T03:53:15;19.70;52.20
12769;DHT22;6448;48.916;8.990;2023-08-08T03:54:18;19.70;51.60
12769;DHT22;6448;48.916;8.990;2023-08-08T03:55:18;19.70;51.70
12769;DHT22;6448;48.916;8.990;2023-08-08T03:56:20;19.60;51.70
12769;DHT22;6448;48.916;8.990;2023-08-08T03:57:22;19.70;51.80
12769;DHT22;6448;48.916;8.990;2023-08-08T03:58:23;19.70;51.90
12769;DHT22;6448;48.916;8.990;2023-08-08T03:59:26;19.70;51.90
12769;DHT22;6448;48.916;8.990;2023-08-08T04:00:27;19.70;51.90
12769;DHT22;6448;48.916;8.990;2023-08-08T04:01:28;19.70;52.00
12769;DHT22;6448;48.916;8.990;2023-08-08T04:02:30;19.70;52.00
12769;DHT22;6448;48.916;8.990;2023-08-08T04:03:31;19.60;51.90
12769;DHT22;6448;48.916;8.990;2023-08-08T04:04:32;19.60;52.00
12769;DHT22;6448;48.916;8.990;2023-08-08T04:05:34;19.60;52.00
12769;DHT22;6448;48.916;8.990;2023-08-08T04:06:35;19.70;52.10
12769;DHT22;6448;48.916;8.990;2023-08-08T04:07:37;19.70;52.10
12769;DHT22;6448;48.916;8.990;2023-08-08T04:08:37;19.60;52.00
12769;DHT22;6448;48.916;8.990;2023-08-08T04:09:42;19.70;52.10
12769;DHT22;6448;48.916;8.990;2023-08-08T04:10:43;19.60;52.00
12769;DHT22;6448;48.916;8.990;2023-08-08T04:11:47;19.70;52.10
12769;DHT22;6448;48.916;8.990;2023-08-08T04:12:48;19.70;52.00
12769;DHT22;6448;48.916;8.990;2023-08-08T04:13:50;19.70;52.00
12769;DHT22;6448;48.916;8.990;2023-08-08T04:14:52;19.60;52.00
12769;DHT22;6448;48.916;8.990;2023-08-08T04:15:53;19.70;52.10
12769;DHT22;6448;48.916;8.990;2023-08-08T04:16:54;19.70;52.00
12769;DHT22;6448;48.916;8.990;2023-08-08T04:17:56;19.70;52.10
12769;DHT22;6448;48.916;8.990;2023-08-08T04:18:57;19.60;52.00
12769;DHT22;6448;48.916;8.990;2023-08-08T04:20:00;19.60;52.00
12769;DHT22;6448;48.916;8.990;2023-08-08T04:21:00;19.70;52.10
12769;DHT22;6448;48.916;8.990;2023-08-08T04:22:01;19.70;52.10
12769;DHT22;6448;48.916;8.990;2023-08-08T04:23:03;19.70;52.00
12769;DHT22;6448;48.916;8.990;2023-08-08T04:24:05;19.70;52.10
12769;DHT22;6448;48.916;8.990;2023-08-08T04:25:08;19.60;52.00
12769;DHT22;6448;48.916;8.990;2023-08-08T04:26:09;19.70;52.10
12769;DHT22;6448;48.916;8.990;2023-08-08T04:27:10;19.60;52.00
12769;DHT22;6448;48.916;8.990;2023-08-08T04:28:11;19.70;52.10
12769;DHT22;6448;48.916;8.990;2023-08-08T04:29:13;19.70;52.20
12769;DHT22;6448;48.916;8.990;2023-08-08T04:30:16;19.70;52.20
12769;DHT22;6448;48.916;8.990;2023-08-08T04:31:18;19.60;52.20
12769;DHT22;6448;48.916;8.990;2023-08-08T04:32:18;19.60;52.20
12769;DHT22;6448;48.916;8.990;2023-08-08T04:33:20;19.60;52.30
12769;DHT22;6448;48.916;8.990;2023-08-08T04:34:21;19.60;52.30
12769;DHT22;6448;48.916;8.990;2023-08-08T04:35:23;19.60;52.30
12769;DHT22;6448;48.916;8.990;2023-08-08T04:36:23;19.60;53.00
12769;DHT22;6448;48.916;8.990;2023-08-08T04:37:24;19.60;52.40
12769;DHT22;6448;48.916;8.990;2023-08-08T04:38:26;19.60;52.40
12769;DHT22;6448;48.916;8.990;2023-08-08T04:39:27;19.60;52.30
12769;DHT22;6448;48.916;8.990;2023-08-08T04:40:28;19.60;52.30
12769;DHT22;6448;48.916;8.990;2023-08-08T04:41:29;19.60;52.30
12769;DHT22;6448;48.916;8.990;2023-08-08T04:42:32;19.60;52.30
12769;DHT22;6448;48.916;8.990;2023-08-08T04:43:32;19.50;52.20
12769;DHT22;6448;48.916;8.990;2023-08-08T04:44:34;19.50;52.20
12769;DHT22;6448;48.916;8.990;2023-08-08T04:45:36;19.60;52.30
12769;DHT22;6448;48.916;8.990;2023-08-08T04:46:38;19.50;52.30
12769;DHT22;6448;48.916;8.990;2023-08-08T04:47:39;19.50;52.30
12769;DHT22;6448;48.916;8.990;2023-08-08T04:48:40;19.50;52.40
12769;DHT22;6448;48.916;8.990;2023-08-08T04:49:41;19.50;52.40
12769;DHT22;6448;48.916;8.990;2023-08-08T04:50:43;19.50;52.50
12769;DHT22;6448;48.916;8.990;2023-08-08T04:51:44;19.50;52.50
12769;DHT22;6448;48.916;8.990;2023-08-08T04:52:45;19.50;52.60
12769;DHT22;6448;48.916;8.990;2023-08-08T04:53:46;19.50;52.60
12769;DHT22;6448;48.916;8.990;2023-08-08T04:54:48;19.40;52.60
12769;DHT22;6448;48.916;8.990;2023-08-08T04:55:49;19.50;52.70
12769;DHT22;6448;48.916;8.990;2023-08-08T04:56:50;19.50;52.70
12769;DHT22;6448;48.916;8.990;2023-08-08T04:57:51;19.40;52.60
12769;DHT22;6448;48.916;8.990;2023-08-08T04:58:52;19.50;52.70
12769;DHT22;6448;48.916;8.990;2023-08-08T04:59:54;19.50;52.70
12769;DHT22;6448;48.916;8.990;2023-08-08T05:00:56;19.50;52.80
12769;DHT22;6448;48.916;8.990;2023-08-08T05:01:57;19.50;52.70
12769;DHT22;6448;48.916;8.990;2023-08-08T05:02:58;19.40;52.70
12769;DHT22;6448;48.916;8.990;2023-08-08T05:04:00;19.50;52.80
12769;DHT22;6448;48.916;8.990;2023-08-08T05:05:01;19.50;52.80
12769;DHT22;6448;48.916;8.990;2023-08-08T05:06:03;19.50;52.80
12769;DHT22;6448;48.916;8.990;2023-08-08T05:07:04;19.50;52.80
12769;DHT22;6448;48.916;8.990;2023-08-08T05:08:06;19.40;52.90
12769;DHT22;6448;48.916;8.990;2023-08-08T05:09:07;19.50;52.90
12769;DHT22;6448;48.916;8.990;2023-08-08T05:10:10;19.50;53.00
12769;DHT22;6448;48.916;8.990;2023-08-08T05:11:10;19.50;53.00
12769;DHT22;6448;48.916;8.990;2023-08-08T05:12:11;19.50;53.10
12769;DHT22;6448;48.916;8.990;2023-08-08T05:13:13;19.40;53.10
12769;DHT22;6448;48.916;8.990;2023-08-08T05:14:14;19.50;53.10
12769;DHT22;6448;48.916;8.990;2023-08-08T05:15:16;19.50;53.70
12769;DHT22;6448;48.916;8.990;2023-08-08T05:16:18;19.40;53.10
12769;DHT22;6448;48.916;8.990;2023-08-08T05:17:20;19.40;53.10
12769;DHT22;6448;48.916;8.990;2023-08-08T05:18:20;19.50;53.20
12769;DHT22;6448;48.916;8.990;2023-08-08T05:19:22;19.50;53.20
12769;DHT22;6448;48.916;8.990;2023-08-08T05:20:25;19.50;53.10
12769;DHT22;6448;48.916;8.990;2023-08-08T05:21:26;19.50;53.10
12769;DHT22;6448;48.916;8.990;2023-08-08T05:22:27;19.50;53.10
12769;DHT22;6448;48.916;8.990;2023-08-08T05:23:29;19.50;53.10
12769;DHT22;6448;48.916;8.990;2023-08-08T05:24:30;19.40;53.10
12769;DHT22;6448;48.916;8.990;2023-08-08T05:25:31;19.50;53.10
12769;DHT22;6448;48.916;8.990;2023-08-08T05:26:32;19.40;53.10
12769;DHT22;6448;48.916;8.990;2023-08-08T05:27:34;19.50;53.20
12769;DHT22;6448;48.916;8.990;2023-08-08T05:28:35;19.50;53.20
12769;DHT22;6448;48.916;8.990;2023-08-08T05:29:37;19.50;53.30
12769;DHT22;6448;48.916;8.990;2023-08-08T05:30:39;19.50;53.40
12769;DHT22;6448;48.916;8.990;2023-08-08T05:31:42;19.50;53.40
12769;DHT22;6448;48.916;8.990;2023-08-08T05:32:42;19.50;53.50
12769;DHT22;6448;48.916;8.990;2023-08-08T05:33:44;19.50;53.50
12769;DHT22;6448;48.916;8.990;2023-08-08T05:34:45;19.50;53.70
12769;DHT22;6448;48.916;8.990;2023-08-08T05:35:46;19.50;53.70
12769;DHT22;6448;48.916;8.990;2023-08-08T05:36:47;19.50;53.90
12769;DHT22;6448;48.916;8.990;2023-08-08T05:37:49;19.50;53.90
12769;DHT22;6448;48.916;8.990;2023-08-08T05:38:50;19.50;54.00
12769;DHT22;6448;48.916;8.990;2023-08-08T05:39:51;19.50;54.00
12769;DHT22;6448;48.916;8.990;2023-08-08T05:40:52;19.50;54.00
12769;DHT22;6448;48.916;8.990;2023-08-08T05:41:54;19.50;54.10
12769;DHT22;6448;48.916;8.990;2023-08-08T05:42:55;19.50;54.10
12769;DHT22;6448;48.916;8.990;2023-08-08T05:43:57;19.50;54.10
12769;DHT22;6448;48.916;8.990;2023-08-08T05:44:57;19.50;54.20
12769;DHT22;6448;48.916;8.990;2023-08-08T05:45:59;19.60;54.20
12769;DHT22;6448;48.916;8.990;2023-08-08T05:47:01;19.50;54.20
12769;DHT22;6448;48.916;8.990;2023-08-08T05:48:03;19.50;54.20
12769;DHT22;6448;48.916;8.990;2023-08-08T05:49:04;19.50;54.20
12769;DHT22;6448;48.916;8.990;2023-08-08T05:50:07;19.60;54.30
12769;DHT22;6448;48.916;8.990;2023-08-08T05:51:08;19.50;54.20
12769;DHT22;6448;48.916;8.990;2023-08-08T05:52:10;19.60;54.30
12769;DHT22;6448;48.916;8.990;2023-08-08T05:53:11;19.60;54.30
12769;DHT22;6448;48.916;8.990;2023-08-08T05:54:12;19.60;54.30
12769;DHT22;6448;48.916;8.990;2023-08-08T05:55:13;19.60;54.20
12769;DHT22;6448;48.916;8.990;2023-08-08T05:56:15;19.60;54.30
12769;DHT22;6448;48.916;8.990;2023-08-08T05:57:16;19.60;54.40
12769;DHT22;6448;48.916;8.990;2023-08-08T05:58:18;19.60;54.50
12769;DHT22;6448;48.916;8.990;2023-08-08T05:59:18;19.60;54.50
12769;DHT22;6448;48.916;8.990;2023-08-08T06:00:20;19.60;54.60
12769;DHT22;6448;48.916;8.990;2023-08-08T06:01:21;19.70;54.50
12769;DHT22;6448;48.916;8.990;2023-08-08T06:02:25;19.70;54.40
12769;DHT22;6448;48.916;8.990;2023-08-08T06:03:26;19.70;54.50
12769;DHT22;6448;48.916;8.990;2023-08-08T06:04:28;19.70;54.40
12769;DHT22;6448;48.916;8.990;2023-08-08T06:05:29;19.80;55.10
12769;DHT22;6448;48.916;8.990;2023-08-08T06:06:30;19.70;54.50
12769;DHT22;6448;48.916;8.990;2023-08-08T06:07:31;19.70;54.50
12769;DHT22;6448;48.916;8.990;2023-08-08T06:08:33;19.80;54.60
12769;DHT22;6448;48.916;8.990;2023-08-08T06:09:34;19.70;54.60
12769;DHT22;6448;48.916;8.990;2023-08-08T06:10:37;20.00;54.80
12769;DHT22;6448;48.916;8.990;2023-08-08T06:11:38;19.80;54.60
12769;DHT22;6448;48.916;8.990;2023-08-08T06:12:40;19.90;54.60
12769;DHT22;6448;48.916;8.990;2023-08-08T06:13:41;19.80;54.50
12769;DHT22;6448;48.916;8.990;2023-08-08T06:14:42;19.80;54.50
12769;DHT22;6448;48.916;8.990;2023-08-08T06:15:43;19.80;54.50
12769;DHT22;6448;48.916;8.990;2023-08-08T06:16:45;19.80;54.40
12769;DHT22;6448;48.916;8.990;2023-08-08T06:17:48;19.80;54.40
12769;DHT22;6448;48.916;8.990;2023-08-08T06:18:49;19.80;54.40
12769;DHT22;6448;48.916;8.990;2023-08-08T06:19:50;19.80;54.30
12769;DHT22;6448;48.916;8.990;2023-08-08T06:20:54;19.90;54.30
12769;DHT22;6448;48.916;8.990;2023-08-08T06:21:55;19.90;54.30
12769;DHT22;6448;48.916;8.990;2023-08-08T06:22:56;19.90;54.20
12769;DHT22;6448;48.916;8.990;2023-08-08T06:23:57;19.90;54.20
12769;DHT22;6448;48.916;8.990;2023-08-08T06:24:59;19.90;54.20
12769;DHT22;6448;48.916;8.990;2023-08-08T06:26:00;19.90;54.10
12769;DHT22;6448;48.916;8.990;2023-08-08T06:27:02;19.90;54.10
12769;DHT22;6448;48.916;8.990;2023-08-08T06:28:03;19.90;54.10
12769;DHT22;6448;48.916;8.990;2023-08-08T06:29:05;20.00;54.20
12769;DHT22;6448;48.916;8.990;2023-08-08T06:30:06;20.00;54.30
12769;DHT22;6448;48.916;8.990;2023-08-08T06:31:09;20.00;54.50
12769;DHT22;6448;48.916;8.990;2023-08-08T06:32:10;20.00;54.50
12769;DHT22;6448;48.916;8.990;2023-08-08T06:33:13;20.00;54.40
12769;DHT22;6448;48.916;8.990;2023-08-08T06:34:14;20.00;54.30
12769;DHT22;6448;48.916;8.990;2023-08-08T06:35:16;20.10;54.40
12769;DHT22;6448;48.916;8.990;2023-08-08T06:36:17;19.90;54.40